AFR87LF LFMN-LFPG
Flight info
| Callsign | AFR87LF |
|---|---|
| Flight time | N/A |
| Altitude | 32000 |
| Route | OKTET DCT GIPNO DCT LOGNI DCT MOKIP DCT ARFOZ DCT TINIL |
| Aircraft | A320/M-SDE2E3FGIJ1RWY/HB1 |
Departure
| Time | N/A |
|---|---|
| Airport | Nice-Côte d'Azur Airport (LFMN) |
Arrival
| Time | 2026-05-08 10:27 |
|---|---|
| Airport | Charles de Gaulle International Airport (LFPG) |
| Time | Latitude | Longitude | Altitude | Speed | Heading |
|---|---|---|---|---|---|
| 2026-05-08 10:01 | 48.35686 | 4.06645 | 19897 ft | 342 kts | 306° |
| 2026-05-08 10:01 | 48.37195 | 4.03889 | 19579 ft | 341 kts | 306° |
| 2026-05-08 10:01 | 48.38699 | 4.01138 | 19258 ft | 340 kts | 306° |
| 2026-05-08 10:02 | 48.40200 | 3.98390 | 18947 ft | 339 kts | 306° |
| 2026-05-08 10:02 | 48.41675 | 3.95691 | 18641 ft | 338 kts | 306° |
| 2026-05-08 10:02 | 48.43166 | 3.92960 | 18325 ft | 337 kts | 306° |
| 2026-05-08 10:02 | 48.44648 | 3.90239 | 17992 ft | 335 kts | 307° |
| 2026-05-08 10:04 | 48.52135 | 3.76443 | 16422 ft | 327 kts | 307° |
| 2026-05-08 10:04 | 48.53568 | 3.73788 | 16116 ft | 325 kts | 306° |
| 2026-05-08 10:04 | 48.54841 | 3.70994 | 15921 ft | 322 kts | 300° |
| 2026-05-08 10:05 | 48.56061 | 3.68158 | 15759 ft | 322 kts | 300° |
| 2026-05-08 10:05 | 48.57280 | 3.65327 | 15595 ft | 321 kts | 300° |
| 2026-05-08 10:05 | 48.58494 | 3.62502 | 15431 ft | 320 kts | 300° |
| 2026-05-08 10:05 | 48.59704 | 3.59681 | 15274 ft | 320 kts | 301° |
| 2026-05-08 10:06 | 48.60909 | 3.56867 | 15100 ft | 319 kts | 301° |
| 2026-05-08 10:06 | 48.62112 | 3.54055 | 14909 ft | 318 kts | 301° |
| 2026-05-08 10:06 | 48.63310 | 3.51260 | 14697 ft | 316 kts | 301° |
| 2026-05-08 10:06 | 48.64505 | 3.48470 | 14507 ft | 315 kts | 301° |
| 2026-05-08 10:07 | 48.65295 | 3.46628 | 14374 ft | 315 kts | 301° |
| 2026-05-08 10:07 | 48.68256 | 3.39700 | 13869 ft | 313 kts | 300° |
| 2026-05-08 10:07 | 48.69433 | 3.36941 | 13654 ft | 311 kts | 301° |
| 2026-05-08 10:08 | 48.70604 | 3.34190 | 13465 ft | 310 kts | 300° |
| 2026-05-08 10:08 | 48.71769 | 3.31444 | 13258 ft | 310 kts | 301° |
| 2026-05-08 10:08 | 48.72930 | 3.28707 | 13062 ft | 309 kts | 301° |
| 2026-05-08 10:08 | 48.74086 | 3.25976 | 12867 ft | 307 kts | 301° |
| 2026-05-08 10:09 | 48.75238 | 3.23253 | 12671 ft | 306 kts | 301° |
| 2026-05-08 10:09 | 48.76386 | 3.20538 | 12475 ft | 305 kts | 301° |
| 2026-05-08 10:09 | 48.77530 | 3.17831 | 12282 ft | 304 kts | 301° |
| 2026-05-08 10:09 | 48.78670 | 3.15136 | 12090 ft | 303 kts | 301° |
| 2026-05-08 10:10 | 48.79809 | 3.12444 | 11882 ft | 302 kts | 301° |
| 2026-05-08 10:10 | 48.80939 | 3.09764 | 11705 ft | 301 kts | 301° |
| 2026-05-08 10:10 | 48.82067 | 3.07088 | 11500 ft | 300 kts | 301° |
| 2026-05-08 10:10 | 48.83189 | 3.04423 | 11323 ft | 298 kts | 301° |
| 2026-05-08 10:11 | 48.84317 | 3.01796 | 11125 ft | 297 kts | 304° |
| 2026-05-08 10:11 | 48.85656 | 2.99414 | 10938 ft | 297 kts | 311° |
| 2026-05-08 10:11 | 48.87054 | 2.97120 | 10754 ft | 296 kts | 311° |
| 2026-05-08 10:11 | 48.88444 | 2.94817 | 10558 ft | 295 kts | 311° |
| 2026-05-08 10:12 | 48.89823 | 2.92522 | 10370 ft | 293 kts | 310° |
| 2026-05-08 10:12 | 48.91191 | 2.90242 | 10173 ft | 289 kts | 311° |
| 2026-05-08 10:12 | 48.92430 | 2.87883 | 9943 ft | 281 kts | 299° |
| 2026-05-08 10:12 | 48.93213 | 2.85226 | 9790 ft | 279 kts | 285° |
| 2026-05-08 10:13 | 48.93537 | 2.82334 | 9622 ft | 277 kts | 271° |
| 2026-05-08 10:13 | 48.93432 | 2.79411 | 9450 ft | 277 kts | 265° |
| 2026-05-08 10:13 | 48.93272 | 2.76488 | 9276 ft | 277 kts | 265° |
| 2026-05-08 10:13 | 48.93117 | 2.73576 | 9075 ft | 276 kts | 265° |
| 2026-05-08 10:14 | 48.92963 | 2.70636 | 8877 ft | 276 kts | 265° |
| 2026-05-08 10:14 | 48.92815 | 2.67778 | 8694 ft | 274 kts | 265° |
| 2026-05-08 10:14 | 48.92660 | 2.64893 | 8468 ft | 274 kts | 265° |
| 2026-05-08 10:14 | 48.92503 | 2.62022 | 8294 ft | 274 kts | 265° |
| 2026-05-08 10:15 | 48.92340 | 2.59130 | 8104 ft | 274 kts | 265° |
| 2026-05-08 10:15 | 48.92182 | 2.56195 | 7965 ft | 275 kts | 265° |
| 2026-05-08 10:15 | 48.92027 | 2.53335 | 7796 ft | 276 kts | 265° |
| 2026-05-08 10:15 | 48.91861 | 2.50400 | 7616 ft | 275 kts | 265° |
| 2026-05-08 10:16 | 48.91704 | 2.47547 | 7420 ft | 274 kts | 265° |
| 2026-05-08 10:16 | 48.91553 | 2.44664 | 7230 ft | 273 kts | 265° |
| 2026-05-08 10:16 | 48.91397 | 2.41786 | 7076 ft | 273 kts | 265° |
| 2026-05-08 10:16 | 48.91234 | 2.38904 | 6894 ft | 274 kts | 265° |
| 2026-05-08 10:17 | 48.90933 | 2.33767 | 6598 ft | 273 kts | 265° |
| 2026-05-08 10:17 | 48.90780 | 2.30886 | 6435 ft | 273 kts | 265° |
| 2026-05-08 10:17 | 48.90632 | 2.28008 | 6211 ft | 273 kts | 265° |
| 2026-05-08 10:18 | 48.90480 | 2.25134 | 6027 ft | 272 kts | 265° |
| 2026-05-08 10:18 | 48.90320 | 2.22272 | 5840 ft | 272 kts | 265° |
| 2026-05-08 10:18 | 48.90139 | 2.19412 | 5681 ft | 272 kts | 265° |
| 2026-05-08 10:18 | 48.89967 | 2.16555 | 5568 ft | 272 kts | 264° |
| 2026-05-08 10:19 | 48.89802 | 2.13697 | 5460 ft | 272 kts | 265° |
| 2026-05-08 10:19 | 48.89786 | 2.10838 | 5263 ft | 269 kts | 283° |
| 2026-05-08 10:19 | 48.90605 | 2.08445 | 5143 ft | 254 kts | 313° |
| 2026-05-08 10:20 | 48.93605 | 2.06733 | 4982 ft | 224 kts | 8° |
| 2026-05-08 10:20 | 48.95055 | 2.07495 | 4994 ft | 221 kts | 32° |
| 2026-05-08 10:20 | 48.96175 | 2.09085 | 5006 ft | 222 kts | 56° |
| 2026-05-08 10:20 | 48.96752 | 2.11233 | 5017 ft | 221 kts | 82° |
| 2026-05-08 10:21 | 48.96898 | 2.13569 | 4996 ft | 221 kts | 85° |
| 2026-05-08 10:21 | 48.97018 | 2.15835 | 4985 ft | 208 kts | 84° |
| 2026-05-08 10:21 | 48.97150 | 2.17974 | 5004 ft | 200 kts | 84° |
| 2026-05-08 10:21 | 48.97266 | 2.20073 | 4994 ft | 199 kts | 84° |
| 2026-05-08 10:22 | 48.97344 | 2.21460 | 4864 ft | 198 kts | 84° |
| 2026-05-08 10:22 | 48.97501 | 2.24233 | 4533 ft | 195 kts | 84° |
| 2026-05-08 10:22 | 48.97619 | 2.26283 | 4272 ft | 193 kts | 85° |
| 2026-05-08 10:22 | 48.97732 | 2.28317 | 4010 ft | 192 kts | 85° |
| 2026-05-08 10:23 | 48.97846 | 2.30327 | 3762 ft | 190 kts | 84° |
| 2026-05-08 10:23 | 48.97953 | 2.32306 | 3509 ft | 186 kts | 85° |
| 2026-05-08 10:23 | 48.98061 | 2.34260 | 3244 ft | 185 kts | 84° |
| 2026-05-08 10:23 | 48.98168 | 2.36207 | 3004 ft | 184 kts | 84° |
| 2026-05-08 10:24 | 48.98283 | 2.38116 | 2761 ft | 178 kts | 84° |
| 2026-05-08 10:24 | 48.98382 | 2.39927 | 2498 ft | 164 kts | 85° |
| 2026-05-08 10:24 | 48.98467 | 2.41551 | 2356 ft | 146 kts | 84° |
| 2026-05-08 10:24 | 48.98552 | 2.43052 | 2099 ft | 139 kts | 84° |
| 2026-05-08 10:25 | 48.98630 | 2.44503 | 1914 ft | 135 kts | 85° |
| 2026-05-08 10:25 | 48.98707 | 2.45934 | 1768 ft | 135 kts | 84° |
| 2026-05-08 10:25 | 48.98786 | 2.47369 | 1539 ft | 136 kts | 86° |
| 2026-05-08 10:25 | 48.98864 | 2.48787 | 1397 ft | 133 kts | 85° |
| 2026-05-08 10:26 | 48.98940 | 2.50193 | 1198 ft | 135 kts | 85° |
| 2026-05-08 10:26 | 48.99023 | 2.51634 | 1022 ft | 138 kts | 86° |
| 2026-05-08 10:26 | 48.99101 | 2.53071 | 862 ft | 136 kts | 83° |
| 2026-05-08 10:26 | 48.99181 | 2.54488 | 649 ft | 133 kts | 86° |
| 2026-05-08 10:27 | 48.99232 | 2.55433 | 551 ft | 132 kts | 85° |
| 2026-05-08 10:27 | 48.99392 | 2.58410 | 353 ft | 86 kts | 85° |
| 2026-05-08 10:27 | 48.99426 | 2.59044 | 351 ft | 24 kts | 79° |
| 2026-05-08 10:28 | 48.99475 | 2.59281 | 359 ft | 22 kts | 65° |
| 2026-05-08 10:28 | 48.99539 | 2.59491 | 359 ft | 22 kts | 65° |
| 2026-05-08 10:28 | 48.99620 | 2.59685 | 362 ft | 22 kts | 19° |
| 2026-05-08 10:28 | 48.99778 | 2.59677 | 361 ft | 24 kts | 355° |
| 2026-05-08 10:29 | 48.99951 | 2.59656 | 357 ft | 26 kts | 354° |
| 2026-05-08 10:29 | 49.00133 | 2.59634 | 354 ft | 27 kts | 355° |
| 2026-05-08 10:29 | 49.00326 | 2.59610 | 354 ft | 29 kts | 355° |
| 2026-05-08 10:29 | 49.00529 | 2.59586 | 354 ft | 28 kts | 355° |
| 2026-05-08 10:30 | 49.00704 | 2.59563 | 354 ft | 25 kts | 355° |
| 2026-05-08 10:30 | 49.00886 | 2.59541 | 354 ft | 27 kts | 355° |
| 2026-05-08 10:30 | 49.01001 | 2.59443 | 357 ft | 17 kts | 264° |
| 2026-05-08 10:30 | 49.00993 | 2.59259 | 357 ft | 19 kts | 264° |
| 2026-05-08 10:31 | 49.00973 | 2.59037 | 354 ft | 22 kts | 256° |
| 2026-05-08 10:31 | 49.00946 | 2.58808 | 354 ft | 22 kts | 265° |
| 2026-05-08 10:31 | 49.00933 | 2.58582 | 354 ft | 21 kts | 266° |
| 2026-05-08 10:31 | 49.00922 | 2.58364 | 358 ft | 22 kts | 265° |
| 2026-05-08 10:32 | 49.00908 | 2.58107 | 358 ft | 26 kts | 265° |
| 2026-05-08 10:32 | 49.00894 | 2.57833 | 362 ft | 26 kts | 265° |
| 2026-05-08 10:32 | 49.00879 | 2.57559 | 361 ft | 26 kts | 265° |
| 2026-05-08 10:32 | 49.00863 | 2.57283 | 356 ft | 24 kts | 262° |
| 2026-05-08 10:33 | 49.00755 | 2.57222 | 354 ft | 18 kts | 174° |
| 2026-05-08 10:33 | 49.00628 | 2.57236 | 354 ft | 19 kts | 174° |
| 2026-05-08 10:33 | 49.00541 | 2.57294 | 359 ft | 7 kts | 107° |
| 2026-05-08 10:33 | 49.00545 | 2.57335 | 358 ft | 2 kts | 74° |
| 2026-05-08 10:34 | 49.00549 | 2.57355 | 354 ft | 0 kts | 76° |